sensor_id;sensor_type;location;lat;lon;timestamp;temperature;humidity
19868;DHT22;10096;51.112;6.776;2022-09-09T00:01:51;17.30;99.90
19868;DHT22;10096;51.112;6.776;2022-09-09T00:04:26;17.30;99.90
19868;DHT22;10096;51.112;6.776;2022-09-09T00:07:03;17.30;99.90
19868;DHT22;10096;51.112;6.776;2022-09-09T00:09:35;17.40;1.00
19868;DHT22;10096;51.112;6.776;2022-09-09T00:12:11;17.40;99.90
19868;DHT22;10096;51.112;6.776;2022-09-09T00:14:45;17.40;99.90
19868;DHT22;10096;51.112;6.776;2022-09-09T00:17:19;17.30;99.90
19868;DHT22;10096;51.112;6.776;2022-09-09T00:19:55;17.20;1.00
19868;DHT22;10096;51.112;6.776;2022-09-09T00:22:26;17.20;1.00
19868;DHT22;10096;51.112;6.776;2022-09-09T00:24:55;17.10;99.90
19868;DHT22;10096;51.112;6.776;2022-09-09T00:27:31;17.20;1.00
19868;DHT22;10096;51.112;6.776;2022-09-09T00:30:14;17.20;99.90
19868;DHT22;10096;51.112;6.776;2022-09-09T00:32:45;17.30;1.00
19868;DHT22;10096;51.112;6.776;2022-09-09T00:35:18;17.40;37.90
19868;DHT22;10096;51.112;6.776;2022-09-09T00:37:47;17.40;1.00
19868;DHT22;10096;51.112;6.776;2022-09-09T00:40:23;17.60;1.00
19868;DHT22;10096;51.112;6.776;2022-09-09T00:42:59;17.60;99.90
19868;DHT22;10096;51.112;6.776;2022-09-09T00:45:53;17.60;1.00
19868;DHT22;10096;51.112;6.776;2022-09-09T00:48:24;17.70;1.00
19868;DHT22;10096;51.112;6.776;2022-09-09T00:50:57;17.60;1.00
19868;DHT22;10096;51.112;6.776;2022-09-09T00:53:37;17.60;1.00
19868;DHT22;10096;51.112;6.776;2022-09-09T00:56:12;17.60;1.00
19868;DHT22;10096;51.112;6.776;2022-09-09T00:58:42;17.60;1.00
19868;DHT22;10096;51.112;6.776;2022-09-09T01:01:12;17.60;1.00
19868;DHT22;10096;51.112;6.776;2022-09-09T01:03:42;17.60;1.00
19868;DHT22;10096;51.112;6.776;2022-09-09T01:06:16;17.60;76.70
19868;DHT22;10096;51.112;6.776;2022-09-09T01:09:10;17.50;99.90
19868;DHT22;10096;51.112;6.776;2022-09-09T01:11:47;17.50;99.90
19868;DHT22;10096;51.112;6.776;2022-09-09T01:14:27;17.40;99.90
19868;DHT22;10096;51.112;6.776;2022-09-09T01:17:00;17.30;1.00
19868;DHT22;10096;51.112;6.776;2022-09-09T01:19:40;17.20;1.00
19868;DHT22;10096;51.112;6.776;2022-09-09T01:22:20;17.20;1.00
19868;DHT22;10096;51.112;6.776;2022-09-09T01:25:07;17.10;99.90
19868;DHT22;10096;51.112;6.776;2022-09-09T01:27:40;17.00;1.00
19868;DHT22;10096;51.112;6.776;2022-09-09T01:30:10;17.00;1.00
19868;DHT22;10096;51.112;6.776;2022-09-09T01:32:41;17.00;1.00
19868;DHT22;10096;51.112;6.776;2022-09-09T01:35:13;16.80;15.70
19868;DHT22;10096;51.112;6.776;2022-09-09T01:37:41;16.90;99.90
19868;DHT22;10096;51.112;6.776;2022-09-09T01:40:08;16.90;99.90
19868;DHT22;10096;51.112;6.776;2022-09-09T01:42:35;17.00;99.90
19868;DHT22;10096;51.112;6.776;2022-09-09T01:45:06;17.00;1.00
19868;DHT22;10096;51.112;6.776;2022-09-09T01:47:34;17.10;99.90
19868;DHT22;10096;51.112;6.776;2022-09-09T01:50:03;17.10;99.90
19868;DHT22;10096;51.112;6.776;2022-09-09T01:52:31;17.10;99.90
19868;DHT22;10096;51.112;6.776;2022-09-09T01:54:59;17.20;99.90
19868;DHT22;10096;51.112;6.776;2022-09-09T01:57:29;17.20;99.90
19868;DHT22;10096;51.112;6.776;2022-09-09T02:00:04;17.20;1.00
19868;DHT22;10096;51.112;6.776;2022-09-09T02:02:36;17.30;99.90
19868;DHT22;10096;51.112;6.776;2022-09-09T02:05:12;17.30;99.90
19868;DHT22;10096;51.112;6.776;2022-09-09T02:07:47;17.30;1.00
19868;DHT22;10096;51.112;6.776;2022-09-09T02:10:20;17.20;99.90
19868;DHT22;10096;51.112;6.776;2022-09-09T02:12:54;17.30;99.90
19868;DHT22;10096;51.112;6.776;2022-09-09T02:15:28;17.20;99.90
19868;DHT22;10096;51.112;6.776;2022-09-09T02:17:58;17.20;99.90
19868;DHT22;10096;51.112;6.776;2022-09-09T02:20:28;17.30;99.90
19868;DHT22;10096;51.112;6.776;2022-09-09T02:22:59;17.30;99.90
19868;DHT22;10096;51.112;6.776;2022-09-09T02:25:29;17.30;99.90
19868;DHT22;10096;51.112;6.776;2022-09-09T02:27:56;17.40;99.90
19868;DHT22;10096;51.112;6.776;2022-09-09T02:30:28;17.30;1.00
19868;DHT22;10096;51.112;6.776;2022-09-09T02:32:58;17.30;1.00
19868;DHT22;10096;51.112;6.776;2022-09-09T02:35:28;17.30;1.00
19868;DHT22;10096;51.112;6.776;2022-09-09T02:38:01;17.20;1.00
19868;DHT22;10096;51.112;6.776;2022-09-09T02:40:28;17.20;1.00
19868;DHT22;10096;51.112;6.776;2022-09-09T02:42:56;17.20;1.00
19868;DHT22;10096;51.112;6.776;2022-09-09T02:45:33;17.20;1.00
19868;DHT22;10096;51.112;6.776;2022-09-09T02:48:09;17.20;1.00
19868;DHT22;10096;51.112;6.776;2022-09-09T02:50:42;17.20;1.00
19868;DHT22;10096;51.112;6.776;2022-09-09T02:53:16;17.20;1.00
19868;DHT22;10096;51.112;6.776;2022-09-09T02:55:47;17.20;1.00
19868;DHT22;10096;51.112;6.776;2022-09-09T02:58:17;17.30;1.00
19868;DHT22;10096;51.112;6.776;2022-09-09T03:00:49;17.20;1.00
19868;DHT22;10096;51.112;6.776;2022-09-09T03:03:17;17.30;1.00
19868;DHT22;10096;51.112;6.776;2022-09-09T03:05:45;17.20;1.00
19868;DHT22;10096;51.112;6.776;2022-09-09T03:08:13;17.30;1.00
19868;DHT22;10096;51.112;6.776;2022-09-09T03:10:40;17.20;1.00
19868;DHT22;10096;51.112;6.776;2022-09-09T03:13:07;17.20;1.00
19868;DHT22;10096;51.112;6.776;2022-09-09T03:15:34;17.10;1.00
19868;DHT22;10096;51.112;6.776;2022-09-09T03:18:04;17.10;19.60
19868;DHT22;10096;51.112;6.776;2022-09-09T03:20:31;17.10;16.20
19868;DHT22;10096;51.112;6.776;2022-09-09T03:23:00;17.20;1.00
19868;DHT22;10096;51.112;6.776;2022-09-09T03:25:28;17.20;1.00
19868;DHT22;10096;51.112;6.776;2022-09-09T03:27:55;17.20;1.00
19868;DHT22;10096;51.112;6.776;2022-09-09T03:30:22;17.20;1.00
19868;DHT22;10096;51.112;6.776;2022-09-09T03:32:50;17.20;1.00
19868;DHT22;10096;51.112;6.776;2022-09-09T03:35:19;17.20;1.00
19868;DHT22;10096;51.112;6.776;2022-09-09T03:37:46;17.20;14.00
19868;DHT22;10096;51.112;6.776;2022-09-09T03:40:13;17.20;16.50
19868;DHT22;10096;51.112;6.776;2022-09-09T03:42:40;17.20;1.00
19868;DHT22;10096;51.112;6.776;2022-09-09T03:45:09;17.20;1.00
19868;DHT22;10096;51.112;6.776;2022-09-09T03:47:37;17.30;1.00
19868;DHT22;10096;51.112;6.776;2022-09-09T03:50:08;17.30;1.00
19868;DHT22;10096;51.112;6.776;2022-09-09T03:52:39;17.40;1.00
19868;DHT22;10096;51.112;6.776;2022-09-09T03:55:07;17.60;1.00
19868;DHT22;10096;51.112;6.776;2022-09-09T03:57:35;17.40;1.00
19868;DHT22;10096;51.112;6.776;2022-09-09T04:00:02;17.30;1.00
19868;DHT22;10096;51.112;6.776;2022-09-09T04:02:31;17.60;1.00
19868;DHT22;10096;51.112;6.776;2022-09-09T04:04:58;17.30;1.00
19868;DHT22;10096;51.112;6.776;2022-09-09T04:07:25;17.60;1.00
19868;DHT22;10096;51.112;6.776;2022-09-09T04:09:55;17.30;1.00
19868;DHT22;10096;51.112;6.776;2022-09-09T04:12:22;17.30;1.00
19868;DHT22;10096;51.112;6.776;2022-09-09T04:14:49;17.30;1.00
19868;DHT22;10096;51.112;6.776;2022-09-09T04:17:16;17.30;1.00
19868;DHT22;10096;51.112;6.776;2022-09-09T04:19:44;17.40;57.10
19868;DHT22;10096;51.112;6.776;2022-09-09T04:22:11;17.40;1.00
19868;DHT22;10096;51.112;6.776;2022-09-09T04:24:37;17.50;1.00
19868;DHT22;10096;51.112;6.776;2022-09-09T04:27:06;17.40;1.00
19868;DHT22;10096;51.112;6.776;2022-09-09T04:29:32;17.40;1.00
19868;DHT22;10096;51.112;6.776;2022-09-09T04:32:00;17.40;26.40
19868;DHT22;10096;51.112;6.776;2022-09-09T04:34:29;17.40;89.00
19868;DHT22;10096;51.112;6.776;2022-09-09T04:36:56;17.40;11.60
19868;DHT22;10096;51.112;6.776;2022-09-09T04:39:24;17.40;1.00
19868;DHT22;10096;51.112;6.776;2022-09-09T04:41:51;17.40;1.00
19868;DHT22;10096;51.112;6.776;2022-09-09T04:44:20;17.40;1.00
19868;DHT22;10096;51.112;6.776;2022-09-09T04:46:49;17.40;1.00
19868;DHT22;10096;51.112;6.776;2022-09-09T04:49:16;17.40;1.00
19868;DHT22;10096;51.112;6.776;2022-09-09T04:51:43;17.40;1.00
19868;DHT22;10096;51.112;6.776;2022-09-09T04:54:12;17.40;1.00
19868;DHT22;10096;51.112;6.776;2022-09-09T04:56:39;17.40;1.00
19868;DHT22;10096;51.112;6.776;2022-09-09T04:59:08;17.70;1.00
19868;DHT22;10096;51.112;6.776;2022-09-09T05:01:36;17.50;1.00
19868;DHT22;10096;51.112;6.776;2022-09-09T05:04:03;17.70;1.00
19868;DHT22;10096;51.112;6.776;2022-09-09T05:06:30;17.40;1.00
19868;DHT22;10096;51.112;6.776;2022-09-09T05:08:57;17.50;1.00
19868;DHT22;10096;51.112;6.776;2022-09-09T05:11:27;17.50;1.00
19868;DHT22;10096;51.112;6.776;2022-09-09T05:13:55;17.50;1.00
19868;DHT22;10096;51.112;6.776;2022-09-09T05:16:23;17.60;1.00
19868;DHT22;10096;51.112;6.776;2022-09-09T05:18:51;17.60;1.00
19868;DHT22;10096;51.112;6.776;2022-09-09T05:21:20;17.80;1.00
19868;DHT22;10096;51.112;6.776;2022-09-09T05:23:48;17.90;1.00
19868;DHT22;10096;51.112;6.776;2022-09-09T05:26:17;17.60;1.00
19868;DHT22;10096;51.112;6.776;2022-09-09T05:28:45;17.60;1.00
19868;DHT22;10096;51.112;6.776;2022-09-09T05:31:13;17.60;13.30
19868;DHT22;10096;51.112;6.776;2022-09-09T05:33:41;17.60;1.00
19868;DHT22;10096;51.112;6.776;2022-09-09T05:36:12;17.60;1.00
19868;DHT22;10096;51.112;6.776;2022-09-09T05:38:40;17.70;12.20
19868;DHT22;10096;51.112;6.776;2022-09-09T05:41:09;17.50;1.00
19868;DHT22;10096;51.112;6.776;2022-09-09T05:43:38;17.60;1.00
19868;DHT22;10096;51.112;6.776;2022-09-09T05:46:07;17.70;1.00
19868;DHT22;10096;51.112;6.776;2022-09-09T05:48:36;17.90;1.00
19868;DHT22;10096;51.112;6.776;2022-09-09T05:51:05;17.70;1.00
19868;DHT22;10096;51.112;6.776;2022-09-09T05:53:33;17.80;1.00
19868;DHT22;10096;51.112;6.776;2022-09-09T05:56:02;17.80;1.00
19868;DHT22;10096;51.112;6.776;2022-09-09T05:58:30;17.90;1.00
19868;DHT22;10096;51.112;6.776;2022-09-09T06:01:03;17.80;1.00
19868;DHT22;10096;51.112;6.776;2022-09-09T06:03:30;18.00;1.00
19868;DHT22;10096;51.112;6.776;2022-09-09T06:05:57;18.00;1.00
19868;DHT22;10096;51.112;6.776;2022-09-09T06:08:26;18.00;1.00
19868;DHT22;10096;51.112;6.776;2022-09-09T06:11:02;18.10;1.00
19868;DHT22;10096;51.112;6.776;2022-09-09T06:13:30;18.10;1.00
19868;DHT22;10096;51.112;6.776;2022-09-09T06:15:57;18.30;99.90
19868;DHT22;10096;51.112;6.776;2022-09-09T06:18:25;18.10;1.00
19868;DHT22;10096;51.112;6.776;2022-09-09T06:20:56;18.30;1.00
19868;DHT22;10096;51.112;6.776;2022-09-09T06:23:24;18.10;99.90
19868;DHT22;10096;51.112;6.776;2022-09-09T06:25:52;18.20;99.90
19868;DHT22;10096;51.112;6.776;2022-09-09T06:28:28;18.20;99.90
19868;DHT22;10096;51.112;6.776;2022-09-09T06:30:58;18.20;99.90
19868;DHT22;10096;51.112;6.776;2022-09-09T06:33:25;18.30;99.90
19868;DHT22;10096;51.112;6.776;2022-09-09T06:35:53;18.40;1.00
19868;DHT22;10096;51.112;6.776;2022-09-09T06:38:22;18.40;99.90
19868;DHT22;10096;51.112;6.776;2022-09-09T06:40:52;18.80;44.70
19868;DHT22;10096;51.112;6.776;2022-09-09T06:43:21;19.20;99.90
19868;DHT22;10096;51.112;6.776;2022-09-09T06:45:55;20.30;99.90
19868;DHT22;10096;51.112;6.776;2022-09-09T06:48:22;21.60;99.90
19868;DHT22;10096;51.112;6.776;2022-09-09T06:50:49;22.70;99.90
19868;DHT22;10096;51.112;6.776;2022-09-09T06:53:17;23.60;99.90
19868;DHT22;10096;51.112;6.776;2022-09-09T06:55:44;24.20;3.70
19868;DHT22;10096;51.112;6.776;2022-09-09T06:58:11;23.20;30.30
19868;DHT22;10096;51.112;6.776;2022-09-09T07:00:38;23.20;51.80
19868;DHT22;10096;51.112;6.776;2022-09-09T07:03:06;23.70;23.70
19868;DHT22;10096;51.112;6.776;2022-09-09T07:05:33;24.50;6.20
19868;DHT22;10096;51.112;6.776;2022-09-09T07:08:01;24.20;1.00
19868;DHT22;10096;51.112;6.776;2022-09-09T07:10:28;23.30;1.00
19868;DHT22;10096;51.112;6.776;2022-09-09T07:12:55;22.70;1.00
19868;DHT22;10096;51.112;6.776;2022-09-09T07:15:22;22.90;1.00
19868;DHT22;10096;51.112;6.776;2022-09-09T07:17:50;22.10;1.00
19868;DHT22;10096;51.112;6.776;2022-09-09T07:20:18;21.60;15.40
19868;DHT22;10096;51.112;6.776;2022-09-09T07:22:46;21.20;35.20
19868;DHT22;10096;51.112;6.776;2022-09-09T07:25:13;21.10;92.40
19868;DHT22;10096;51.112;6.776;2022-09-09T07:27:43;21.10;1.00
19868;DHT22;10096;51.112;6.776;2022-09-09T07:30:11;21.00;1.00
19868;DHT22;10096;51.112;6.776;2022-09-09T07:32:38;21.20;1.00
19868;DHT22;10096;51.112;6.776;2022-09-09T07:35:06;21.50;60.90
19868;DHT22;10096;51.112;6.776;2022-09-09T07:37:36;21.80;1.00
19868;DHT22;10096;51.112;6.776;2022-09-09T07:40:04;22.10;1.00
19868;DHT22;10096;51.112;6.776;2022-09-09T07:42:31;21.90;1.00
19868;DHT22;10096;51.112;6.776;2022-09-09T07:44:58;21.60;21.30
19868;DHT22;10096;51.112;6.776;2022-09-09T07:47:25;21.40;10.80
19868;DHT22;10096;51.112;6.776;2022-09-09T07:49:52;21.80;14.30
19868;DHT22;10096;51.112;6.776;2022-09-09T07:52:20;21.60;1.00
19868;DHT22;10096;51.112;6.776;2022-09-09T07:54:48;21.70;40.90
19868;DHT22;10096;51.112;6.776;2022-09-09T07:57:16;21.80;7.70
19868;DHT22;10096;51.112;6.776;2022-09-09T07:59:43;21.80;1.00
19868;DHT22;10096;51.112;6.776;2022-09-09T08:02:10;21.80;1.00
19868;DHT22;10096;51.112;6.776;2022-09-09T08:04:38;21.60;18.20
19868;DHT22;10096;51.112;6.776;2022-09-09T08:07:04;21.70;6.60
19868;DHT22;10096;51.112;6.776;2022-09-09T08:09:32;21.40;4.30
19868;DHT22;10096;51.112;6.776;2022-09-09T08:12:01;21.00;1.00
19868;DHT22;10096;51.112;6.776;2022-09-09T08:14:29;20.80;1.00
19868;DHT22;10096;51.112;6.776;2022-09-09T08:16:56;20.70;1.00
19868;DHT22;10096;51.112;6.776;2022-09-09T08:19:23;20.90;11.20
19868;DHT22;10096;51.112;6.776;2022-09-09T08:21:51;21.50;1.10
19868;DHT22;10096;51.112;6.776;2022-09-09T08:24:18;21.20;1.00
19868;DHT22;10096;51.112;6.776;2022-09-09T08:26:46;21.20;1.00
19868;DHT22;10096;51.112;6.776;2022-09-09T08:29:16;21.30;1.00
19868;DHT22;10096;51.112;6.776;2022-09-09T08:31:44;21.60;1.00
19868;DHT22;10096;51.112;6.776;2022-09-09T08:34:12;21.70;1.00
19868;DHT22;10096;51.112;6.776;2022-09-09T08:36:40;21.60;1.00
19868;DHT22;10096;51.112;6.776;2022-09-09T08:39:09;21.40;1.00
19868;DHT22;10096;51.112;6.776;2022-09-09T08:44:59;21.20;1.00
19868;DHT22;10096;51.112;6.776;2022-09-09T08:47:34;21.20;1.00
19868;DHT22;10096;51.112;6.776;2022-09-09T08:50:18;21.10;1.00
19868;DHT22;10096;51.112;6.776;2022-09-09T08:52:53;21.10;1.00
19868;DHT22;10096;51.112;6.776;2022-09-09T08:55:26;21.10;1.00
19868;DHT22;10096;51.112;6.776;2022-09-09T08:57:55;21.00;1.00
19868;DHT22;10096;51.112;6.776;2022-09-09T09:00:32;21.00;1.00
19868;DHT22;10096;51.112;6.776;2022-09-09T09:03:06;21.40;1.00
19868;DHT22;10096;51.112;6.776;2022-09-09T09:05:42;21.50;1.00
19868;DHT22;10096;51.112;6.776;2022-09-09T09:08:19;21.50;1.00
19868;DHT22;10096;51.112;6.776;2022-09-09T09:10:51;21.50;1.00
19868;DHT22;10096;51.112;6.776;2022-09-09T09:13:29;21.40;1.00
19868;DHT22;10096;51.112;6.776;2022-09-09T09:16:02;21.20;1.00
19868;DHT22;10096;51.112;6.776;2022-09-09T09:18:33;21.30;1.00
19868;DHT22;10096;51.112;6.776;2022-09-09T09:21:10;21.30;1.00
19868;DHT22;10096;51.112;6.776;2022-09-09T09:23:44;21.60;1.00
19868;DHT22;10096;51.112;6.776;2022-09-09T09:26:12;21.70;1.00
19868;DHT22;10096;51.112;6.776;2022-09-09T09:28:39;21.80;1.00
19868;DHT22;10096;51.112;6.776;2022-09-09T09:31:10;21.70;1.00
19868;DHT22;10096;51.112;6.776;2022-09-09T09:33:45;21.90;1.00
19868;DHT22;10096;51.112;6.776;2022-09-09T09:36:13;22.10;1.00
19868;DHT22;10096;51.112;6.776;2022-09-09T09:38:53;22.40;1.00
19868;DHT22;10096;51.112;6.776;2022-09-09T09:41:29;22.80;1.00
19868;DHT22;10096;51.112;6.776;2022-09-09T09:43:57;22.50;1.00
19868;DHT22;10096;51.112;6.776;2022-09-09T09:46:25;22.50;1.00
19868;DHT22;10096;51.112;6.776;2022-09-09T09:48:59;22.40;1.00
19868;DHT22;10096;51.112;6.776;2022-09-09T09:51:26;22.30;1.00
19868;DHT22;10096;51.112;6.776;2022-09-09T09:54:08;22.40;1.00
19868;DHT22;10096;51.112;6.776;2022-09-09T09:56:36;22.40;1.00
19868;DHT22;10096;51.112;6.776;2022-09-09T09:59:03;22.40;1.00
19868;DHT22;10096;51.112;6.776;2022-09-09T10:01:33;22.20;1.00
19868;DHT22;10096;51.112;6.776;2022-09-09T10:04:02;22.20;1.00
19868;DHT22;10096;51.112;6.776;2022-09-09T10:06:39;22.30;1.00
19868;DHT22;10096;51.112;6.776;2022-09-09T10:09:21;22.40;1.00
19868;DHT22;10096;51.112;6.776;2022-09-09T10:11:54;22.60;1.00
19868;DHT22;10096;51.112;6.776;2022-09-09T10:14:30;22.60;1.00
19868;DHT22;10096;51.112;6.776;2022-09-09T10:17:13;22.50;1.00
19868;DHT22;10096;51.112;6.776;2022-09-09T10:19:50;22.50;1.00
19868;DHT22;10096;51.112;6.776;2022-09-09T10:22:26;22.40;1.00
19868;DHT22;10096;51.112;6.776;2022-09-09T10:25:29;22.70;1.00
19868;DHT22;10096;51.112;6.776;2022-09-09T10:28:13;23.10;1.00
19868;DHT22;10096;51.112;6.776;2022-09-09T10:30:50;23.00;1.00
19868;DHT22;10096;51.112;6.776;2022-09-09T10:33:27;23.10;1.00
19868;DHT22;10096;51.112;6.776;2022-09-09T10:36:02;22.70;1.00
19868;DHT22;10096;51.112;6.776;2022-09-09T10:38:39;22.90;1.00
19868;DHT22;10096;51.112;6.776;2022-09-09T10:41:20;22.70;1.00
19868;DHT22;10096;51.112;6.776;2022-09-09T10:44:16;23.00;1.00
19868;DHT22;10096;51.112;6.776;2022-09-09T10:47:07;22.90;1.00
19868;DHT22;10096;51.112;6.776;2022-09-09T10:50:00;22.80;1.00
19868;DHT22;10096;51.112;6.776;2022-09-09T10:52:38;22.70;1.00
19868;DHT22;10096;51.112;6.776;2022-09-09T10:55:11;22.70;1.00
19868;DHT22;10096;51.112;6.776;2022-09-09T10:57:43;22.60;1.00
19868;DHT22;10096;51.112;6.776;2022-09-09T11:00:17;22.90;1.00
19868;DHT22;10096;51.112;6.776;2022-09-09T11:02:46;22.60;1.00
19868;DHT22;10096;51.112;6.776;2022-09-09T11:05:19;22.50;1.00
19868;DHT22;10096;51.112;6.776;2022-09-09T11:07:49;22.20;1.00
19868;DHT22;10096;51.112;6.776;2022-09-09T11:10:24;21.70;1.00
19868;DHT22;10096;51.112;6.776;2022-09-09T11:13:01;21.30;1.00
19868;DHT22;10096;51.112;6.776;2022-09-09T11:15:33;21.30;1.00
19868;DHT22;10096;51.112;6.776;2022-09-09T11:18:03;21.60;1.00
19868;DHT22;10096;51.112;6.776;2022-09-09T11:20:33;21.60;1.00
19868;DHT22;10096;51.112;6.776;2022-09-09T11:23:04;21.60;1.00
19868;DHT22;10096;51.112;6.776;2022-09-09T11:25:36;21.80;1.00
19868;DHT22;10096;51.112;6.776;2022-09-09T11:28:18;21.90;1.00
19868;DHT22;10096;51.112;6.776;2022-09-09T11:30:55;21.60;1.00
19868;DHT22;10096;51.112;6.776;2022-09-09T11:33:53;21.50;1.00
19868;DHT22;10096;51.112;6.776;2022-09-09T11:36:43;21.70;1.00
19868;DHT22;10096;51.112;6.776;2022-09-09T11:39:41;22.20;1.00
19868;DHT22;10096;51.112;6.776;2022-09-09T11:45:25;22.90;1.00
19868;DHT22;10096;51.112;6.776;2022-09-09T11:47:55;22.70;1.00
19868;DHT22;10096;51.112;6.776;2022-09-09T11:50:34;22.80;1.00
19868;DHT22;10096;51.112;6.776;2022-09-09T11:53:18;22.80;1.00
19868;DHT22;10096;51.112;6.776;2022-09-09T11:56:08;22.70;1.00
19868;DHT22;10096;51.112;6.776;2022-09-09T11:58:55;22.60;1.00
19868;DHT22;10096;51.112;6.776;2022-09-09T12:01:44;22.40;1.00
19868;DHT22;10096;51.112;6.776;2022-09-09T12:04:21;22.40;1.00
19868;DHT22;10096;51.112;6.776;2022-09-09T12:06:54;22.20;1.00
19868;DHT22;10096;51.112;6.776;2022-09-09T12:09:28;22.50;1.00
19868;DHT22;10096;51.112;6.776;2022-09-09T12:12:07;22.70;1.00
19868;DHT22;10096;51.112;6.776;2022-09-09T12:14:56;22.90;1.00
19868;DHT22;10096;51.112;6.776;2022-09-09T12:17:24;23.00;1.00
19868;DHT22;10096;51.112;6.776;2022-09-09T12:20:01;23.40;1.00
19868;DHT22;10096;51.112;6.776;2022-09-09T12:22:37;23.60;1.00
19868;DHT22;10096;51.112;6.776;2022-09-09T12:25:18;24.20;1.00
19868;DHT22;10096;51.112;6.776;2022-09-09T12:28:01;24.00;1.00
19868;DHT22;10096;51.112;6.776;2022-09-09T12:30:33;23.90;1.00
19868;DHT22;10096;51.112;6.776;2022-09-09T12:33:02;23.60;1.00
19868;DHT22;10096;51.112;6.776;2022-09-09T12:35:30;23.70;1.00
19868;DHT22;10096;51.112;6.776;2022-09-09T12:38:00;23.80;1.00
19868;DHT22;10096;51.112;6.776;2022-09-09T12:40:31;23.30;1.00
19868;DHT22;10096;51.112;6.776;2022-09-09T12:43:01;23.40;1.00
19868;DHT22;10096;51.112;6.776;2022-09-09T12:45:30;23.40;1.00
19868;DHT22;10096;51.112;6.776;2022-09-09T12:47:59;23.30;1.00
19868;DHT22;10096;51.112;6.776;2022-09-09T12:50:29;22.50;99.90
19868;DHT22;10096;51.112;6.776;2022-09-09T12:52:58;21.50;1.00
19868;DHT22;10096;51.112;6.776;2022-09-09T12:55:30;20.80;1.00
19868;DHT22;10096;51.112;6.776;2022-09-09T12:57:59;20.40;99.90
19868;DHT22;10096;51.112;6.776;2022-09-09T13:00:30;20.70;99.90
19868;DHT22;10096;51.112;6.776;2022-09-09T13:02:58;21.00;99.90
19868;DHT22;10096;51.112;6.776;2022-09-09T13:05:28;21.20;87.50
19868;DHT22;10096;51.112;6.776;2022-09-09T13:08:02;21.50;1.00
19868;DHT22;10096;51.112;6.776;2022-09-09T13:10:34;21.80;99.90
19868;DHT22;10096;51.112;6.776;2022-09-09T13:13:02;22.20;99.90
19868;DHT22;10096;51.112;6.776;2022-09-09T13:15:29;22.40;99.90
19868;DHT22;10096;51.112;6.776;2022-09-09T13:17:58;22.50;1.00
19868;DHT22;10096;51.112;6.776;2022-09-09T13:20:27;22.70;1.00
19868;DHT22;10096;51.112;6.776;2022-09-09T13:22:55;23.00;35.60
19868;DHT22;10096;51.112;6.776;2022-09-09T13:25:25;23.20;1.00
19868;DHT22;10096;51.112;6.776;2022-09-09T13:27:57;23.40;99.90
19868;DHT22;10096;51.112;6.776;2022-09-09T13:30:27;23.50;99.90
19868;DHT22;10096;51.112;6.776;2022-09-09T13:33:06;23.60;99.90
19868;DHT22;10096;51.112;6.776;2022-09-09T13:35:47;23.50;99.90
19868;DHT22;10096;51.112;6.776;2022-09-09T13:38:16;23.70;99.90
19868;DHT22;10096;51.112;6.776;2022-09-09T13:40:52;23.70;99.90
19868;DHT22;10096;51.112;6.776;2022-09-09T13:43:23;23.90;99.90
19868;DHT22;10096;51.112;6.776;2022-09-09T13:45:57;23.90;36.70
19868;DHT22;10096;51.112;6.776;2022-09-09T13:48:25;23.70;1.00
19868;DHT22;10096;51.112;6.776;2022-09-09T13:50:58;23.50;15.80
19868;DHT22;10096;51.112;6.776;2022-09-09T13:53:25;23.30;1.00
19868;DHT22;10096;51.112;6.776;2022-09-09T13:55:52;23.30;1.00
19868;DHT22;10096;51.112;6.776;2022-09-09T13:58:20;23.20;1.00
19868;DHT22;10096;51.112;6.776;2022-09-09T14:00:49;23.30;10.00
19868;DHT22;10096;51.112;6.776;2022-09-09T14:03:17;23.50;1.00
19868;DHT22;10096;51.112;6.776;2022-09-09T14:05:44;23.80;1.00
19868;DHT22;10096;51.112;6.776;2022-09-09T14:08:20;23.70;1.00
19868;DHT22;10096;51.112;6.776;2022-09-09T14:10:47;23.90;1.00
19868;DHT22;10096;51.112;6.776;2022-09-09T14:13:14;24.10;1.00
19868;DHT22;10096;51.112;6.776;2022-09-09T14:15:41;24.40;1.00
19868;DHT22;10096;51.112;6.776;2022-09-09T14:18:11;24.00;1.00
19868;DHT22;10096;51.112;6.776;2022-09-09T14:20:40;24.10;1.00
19868;DHT22;10096;51.112;6.776;2022-09-09T14:23:11;24.10;1.00
19868;DHT22;10096;51.112;6.776;2022-09-09T14:25:42;24.10;1.00
19868;DHT22;10096;51.112;6.776;2022-09-09T14:28:11;23.90;1.00
19868;DHT22;10096;51.112;6.776;2022-09-09T14:30:39;23.80;1.00
19868;DHT22;10096;51.112;6.776;2022-09-09T14:33:15;23.70;1.00
19868;DHT22;10096;51.112;6.776;2022-09-09T14:35:43;23.70;1.00
19868;DHT22;10096;51.112;6.776;2022-09-09T14:38:10;22.90;1.00
19868;DHT22;10096;51.112;6.776;2022-09-09T14:40:40;22.70;1.00
19868;DHT22;10096;51.112;6.776;2022-09-09T14:43:11;22.60;99.90
19868;DHT22;10096;51.112;6.776;2022-09-09T14:45:37;21.80;1.00
19868;DHT22;10096;51.112;6.776;2022-09-09T14:48:06;21.20;99.90
19868;DHT22;10096;51.112;6.776;2022-09-09T14:50:44;20.80;1.00
19868;DHT22;10096;51.112;6.776;2022-09-09T14:53:11;20.90;99.90
19868;DHT22;10096;51.112;6.776;2022-09-09T14:55:39;20.80;1.00
19868;DHT22;10096;51.112;6.776;2022-09-09T14:58:06;20.50;1.00
19868;DHT22;10096;51.112;6.776;2022-09-09T15:00:33;20.30;99.90
19868;DHT22;10096;51.112;6.776;2022-09-09T15:03:00;20.50;1.00
19868;DHT22;10096;51.112;6.776;2022-09-09T15:05:32;20.30;99.90
19868;DHT22;10096;51.112;6.776;2022-09-09T15:08:01;20.30;1.00
19868;DHT22;10096;51.112;6.776;2022-09-09T15:10:28;20.50;2.20
19868;DHT22;10096;51.112;6.776;2022-09-09T15:12:56;20.40;1.00
19868;DHT22;10096;51.112;6.776;2022-09-09T15:15:24;20.50;99.90
19868;DHT22;10096;51.112;6.776;2022-09-09T15:17:52;20.90;1.00
19868;DHT22;10096;51.112;6.776;2022-09-09T15:20:19;20.70;99.90
19868;DHT22;10096;51.112;6.776;2022-09-09T15:22:47;20.80;1.00
19868;DHT22;10096;51.112;6.776;2022-09-09T15:25:15;20.90;1.00
19868;DHT22;10096;51.112;6.776;2022-09-09T15:27:43;20.90;99.90
19868;DHT22;10096;51.112;6.776;2022-09-09T15:30:11;20.70;99.90
19868;DHT22;10096;51.112;6.776;2022-09-09T15:32:38;20.70;1.00
19868;DHT22;10096;51.112;6.776;2022-09-09T15:35:06;20.40;1.00
19868;DHT22;10096;51.112;6.776;2022-09-09T15:37:34;20.30;1.00
19868;DHT22;10096;51.112;6.776;2022-09-09T15:40:02;20.20;99.90
19868;DHT22;10096;51.112;6.776;2022-09-09T15:42:31;20.10;1.00
19868;DHT22;10096;51.112;6.776;2022-09-09T15:44:58;20.20;45.30
19868;DHT22;10096;51.112;6.776;2022-09-09T15:47:25;19.90;99.90
19868;DHT22;10096;51.112;6.776;2022-09-09T15:49:52;20.10;99.90
19868;DHT22;10096;51.112;6.776;2022-09-09T15:52:21;19.70;99.90
19868;DHT22;10096;51.112;6.776;2022-09-09T15:55:02;19.50;99.90
19868;DHT22;10096;51.112;6.776;2022-09-09T15:57:31;19.70;99.90
19868;DHT22;10096;51.112;6.776;2022-09-09T15:59:58;19.90;1.00
19868;DHT22;10096;51.112;6.776;2022-09-09T16:02:25;20.20;99.90
19868;DHT22;10096;51.112;6.776;2022-09-09T16:05:07;20.60;1.00
19868;DHT22;10096;51.112;6.776;2022-09-09T16:07:39;21.10;99.90
19868;DHT22;10096;51.112;6.776;2022-09-09T16:10:08;21.30;1.00
19868;DHT22;10096;51.112;6.776;2022-09-09T16:12:42;21.30;1.00
19868;DHT22;10096;51.112;6.776;2022-09-09T16:15:09;21.30;1.00